Time;durP1;ratioP1;P1;durP2;ratioP2;P2;SDS_P1;SDS_P2;PMS_P1;PMS_P2;Temp;Humidity;BMP_temperature;BMP_pressure;BME280_temperature;BME280_humidity;BME280_pressure;Samples;Min_cycle;Max_cycle;Signal;HPM_P1;HPM_P2
2022/11/18 14:40:12;;;;;;;3.50;1.50;;;;;;;18.58;39.39;93469.59;5064888;28;20409;-77
2022/11/18 14:42:38;;;;;;;2.92;1.30;;;;;;;18.40;39.47;93473.84;5039337;28;20037;-78
2022/11/18 14:45:04;;;;;;;2.92;1.38;;;;;;;18.12;39.70;93476.94;5056544;23;20060;-78
2022/11/18 14:48:48;;;;;;;3.22;1.10;;;;;;;18.04;39.89;93467.66;5078239;27;20390;-76
2022/11/18 14:51:14;;;;;;;2.85;1.30;;;;;;;17.88;40.05;93476.91;5016530;28;20064;-75
2022/11/18 14:53:40;;;;;;;2.72;1.20;;;;;;;17.71;40.38;93463.88;5018481;28;20530;-77
2022/11/18 14:56:11;;;;;;;4.82;1.60;;;;;;;17.75;39.92;93463.63;4984536;28;20600;-76
2022/11/18 14:58:36;;;;;;;2.53;1.60;;;;;;;17.71;40.58;93477.78;4968675;28;20030;-76
2022/11/18 15:01:01;;;;;;;4.18;1.90;;;;;;;17.67;40.89;93480.09;4984460;28;20076;-76
2022/11/18 15:03:27;;;;;;;2.60;1.40;;;;;;;17.62;40.98;93505.91;5019530;28;20026;-75
2022/11/18 15:05:52;;;;;;;3.50;1.42;;;;;;;17.52;41.78;93510.28;4825943;28;78475;-75
2022/11/18 15:08:18;;;;;;;3.15;1.30;;;;;;;17.50;42.28;93513.59;4991389;28;20035;-75
2022/11/18 15:10:43;;;;;;;2.03;1.10;;;;;;;17.28;44.22;93510.22;4979385;28;20031;-76
2022/11/18 15:13:08;;;;;;;3.30;1.40;;;;;;;17.15;45.85;93500.44;4996457;28;20033;-75
2022/11/18 15:15:34;;;;;;;5.10;1.70;;;;;;;17.16;46.50;93503.97;5002148;28;20392;-74
2022/11/18 15:17:59;;;;;;;2.08;1.38;;;;;;;17.12;47.13;93523.66;4989196;28;20476;-72
2022/11/18 15:20:25;;;;;;;3.80;2.28;;;;;;;17.03;47.70;93523.97;4983901;28;20723;-72
2022/11/18 15:22:50;;;;;;;3.75;1.73;;;;;;;16.99;48.76;93504.81;5005579;28;20189;-72
2022/11/18 15:25:16;;;;;;;4.38;1.58;;;;;;;16.87;49.58;93489.50;4996985;28;20097;-71
2022/11/18 15:27:41;;;;;;;3.53;1.80;;;;;;;16.77;49.99;93479.19;4983677;28;20030;-71
2022/11/18 15:30:07;;;;;;;5.30;2.03;;;;;;;16.82;50.12;93472.88;4983099;28;20027;-71
2022/11/18 15:32:33;;;;;;;3.75;2.10;;;;;;;16.71;50.22;93463.34;4970649;28;20084;-71
2022/11/18 15:34:58;;;;;;;3.58;2.03;;;;;;;16.73;50.23;93454.50;4982322;28;20486;-76
2022/11/18 15:37:24;;;;;;;3.42;2.15;;;;;;;16.68;50.15;93456.00;4969154;28;20033;-74
2022/11/18 15:39:50;;;;;;;4.22;2.42;;;;;;;16.56;50.09;93443.44;5012405;28;20030;-75
2022/11/18 15:42:16;;;;;;;3.03;2.20;;;;;;;16.53;50.63;93435.41;4981222;28;20018;-75
2022/11/18 15:44:42;;;;;;;6.57;2.70;;;;;;;16.44;50.74;93436.44;5003959;28;20057;-74
2022/11/18 15:47:08;;;;;;;3.72;2.00;;;;;;;16.45;50.43;93441.47;5002764;28;20080;-74
2022/11/18 15:49:33;;;;;;;3.58;2.35;;;;;;;16.38;50.65;93442.00;4981554;28;20021;-77
2022/11/18 15:51:59;;;;;;;4.95;2.42;;;;;;;16.31;50.58;93444.56;4984564;28;20022;-75
2022/11/18 15:54:24;;;;;;;3.75;2.10;;;;;;;16.28;50.24;93445.59;4977714;28;20030;-75
2022/11/18 15:56:50;;;;;;;11.90;7.65;;;;;;;16.31;51.00;93441.81;4982142;28;20053;-76
2022/11/18 15:59:15;;;;;;;11.73;6.68;;;;;;;16.34;51.03;93424.13;4973641;28;20027;-75
2022/11/18 16:01:42;;;;;;;9.77;4.95;;;;;;;16.30;50.83;93415.34;4945500;28;20028;-73
2022/11/18 16:04:09;;;;;;;6.47;4.45;;;;;;;16.28;51.00;93407.50;4947055;28;20038;-76
2022/11/18 16:06:34;;;;;;;7.53;4.70;;;;;;;16.25;50.98;93407.78;4953388;28;20110;-77
2022/11/18 16:09:00;;;;;;;5.53;3.42;;;;;;;16.28;50.45;93420.63;4833105;28;20048;-77
2022/11/18 16:14:11;;;;;;;3.22;2.25;;;;;;;16.26;49.23;93421.16;5003490;28;20475;-78
2022/11/18 16:16:37;;;;;;;7.15;2.63;;;;;;;16.28;49.21;93426.91;5003616;28;20052;-79
2022/11/18 16:19:04;;;;;;;5.03;2.80;;;;;;;16.33;49.08;93442.03;4991643;28;20081;-76
2022/11/18 16:21:36;;;;;;;7.10;3.67;;;;;;;16.36;49.64;93460.44;4998094;28;20053;-74
2022/11/18 16:24:02;;;;;;;5.70;4.18;;;;;;;16.39;49.89;93467.72;4992960;28;20056;-75
2022/11/18 16:26:29;;;;;;;5.75;3.13;;;;;;;16.38;49.38;93483.63;4973170;28;20026;-77
2022/11/18 16:28:55;;;;;;;4.72;3.03;;;;;;;16.41;48.91;93501.25;4975478;28;20029;-74
2022/11/18 16:31:38;;;;;;;4.63;2.97;;;;;;;16.34;49.79;93493.44;5004764;28;20030;-75
2022/11/18 16:34:14;;;;;;;4.43;2.63;;;;;;;16.30;50.01;93492.97;4986567;28;20026;-78
2022/11/18 16:36:41;;;;;;;4.32;2.42;;;;;;;16.18;50.73;93495.78;5008847;28;20046;-76
2022/11/18 16:39:09;;;;;;;3.85;2.40;;;;;;;16.03;50.74;93506.38;4973740;28;20029;-80
2022/11/18 16:41:34;;;;;;;4.25;2.10;;;;;;;16.01;51.58;93503.38;4990722;28;20844;-83
2022/11/18 16:44:04;;;;;;;5.00;1.90;;;;;;;15.92;51.78;93495.31;4990044;28;20038;-78
2022/11/18 16:46:31;;;;;;;5.72;2.25;;;;;;;15.84;52.42;93497.09;4971643;28;20480;-77
2022/11/18 16:48:57;;;;;;;2.40;1.77;;;;;;;15.84;52.54;93503.41;4962903;28;20049;-77
2022/11/18 16:51:27;;;;;;;4.65;2.70;;;;;;;15.78;53.03;93501.91;4974286;28;20026;-77
2022/11/18 16:53:54;;;;;;;4.63;2.38;;;;;;;15.77;53.05;93501.16;4972180;28;20515;-77
2022/11/18 16:56:20;;;;;;;6.78;2.30;;;;;;;15.68;53.02;93495.09;4983761;28;22079;-76
2022/11/18 16:58:46;;;;;;;2.97;2.22;;;;;;;15.57;53.55;93479.22;4944193;28;20581;-78
2022/11/18 17:01:12;;;;;;;6.05;2.80;;;;;;;15.48;53.63;93485.00;5009232;28;20156;-79
2022/11/18 17:03:38;;;;;;;3.97;2.10;;;;;;;15.53;53.43;93485.00;4965435;28;20030;-74
2022/11/18 17:06:03;;;;;;;5.75;2.78;;;;;;;15.50;53.63;93490.81;4974910;28;20408;-76
2022/11/18 17:08:33;;;;;;;5.20;2.22;;;;;;;15.43;53.46;93481.00;4985104;28;20034;-75
2022/11/18 17:11:04;;;;;;;5.75;2.10;;;;;;;15.44;53.55;93484.50;4966188;28;20022;-74
2022/11/18 17:13:29;;;;;;;3.60;2.40;;;;;;;15.42;53.36;93482.22;4974129;28;20563;-74
2022/11/18 17:15:54;;;;;;;3.42;2.00;;;;;;;15.39;53.64;93477.72;5009601;28;20026;-77
2022/11/18 17:18:20;;;;;;;5.55;2.40;;;;;;;15.28;53.72;93480.47;4991087;28;20476;-76
2022/11/18 17:20:45;;;;;;;4.70;2.05;;;;;;;15.35;53.39;93466.13;5008763;28;20022;-76
2022/11/18 17:23:11;;;;;;;5.18;2.50;;;;;;;15.33;53.04;93474.94;4999268;28;20031;-80
2022/11/18 17:25:38;;;;;;;3.85;2.65;;;;;;;15.39;53.02;93452.78;4954640;28;20031;-76
2022/11/18 17:28:04;;;;;;;3.65;2.38;;;;;;;15.40;52.87;93473.69;4965847;28;20415;-75
2022/11/18 17:30:29;;;;;;;5.38;2.10;;;;;;;15.41;52.87;93458.56;4968986;28;20045;-74
2022/11/18 17:32:55;;;;;;;3.80;2.38;;;;;;;15.33;53.39;93463.88;4972406;28;20030;-76
2022/11/18 17:35:20;;;;;;;3.97;2.28;;;;;;;15.30;53.38;93448.25;4991475;28;20377;-75
2022/11/18 17:37:46;;;;;;;5.93;2.75;;;;;;;15.41;53.08;93462.09;4972312;28;20034;-75
2022/11/18 17:40:12;;;;;;;4.65;2.25;;;;;;;15.37;53.17;93430.41;4984901;28;20026;-77
2022/11/18 17:42:37;;;;;;;6.45;2.15;;;;;;;15.46;52.81;93445.97;4951802;28;20062;-76
2022/11/18 17:45:03;;;;;;;5.97;3.13;;;;;;;15.51;52.46;93429.38;4969380;28;20038;-76
2022/11/18 17:47:29;;;;;;;5.07;2.10;;;;;;;15.51;52.52;93425.84;4951057;28;20444;-77
2022/11/18 17:49:54;;;;;;;3.35;1.80;;;;;;;15.49;52.39;93406.97;4985390;28;20038;-75
2022/11/18 17:52:20;;;;;;;5.18;2.00;;;;;;;15.58;52.14;93430.88;4983547;28;20293;-75
2022/11/18 17:54:46;;;;;;;2.30;1.60;;;;;;;15.61;52.00;93463.09;4970264;28;20053;-75
2022/11/18 17:57:11;;;;;;;4.82;1.80;;;;;;;15.54;52.24;93419.28;4938455;28;20031;-76
2022/11/18 17:59:36;;;;;;;4.00;2.28;;;;;;;15.62;52.38;93442.44;4967889;28;20031;-75
2022/11/18 18:02:02;;;;;;;4.88;2.30;;;;;;;15.60;52.35;93418.03;4969636;28;20031;-75
2022/11/18 18:04:27;;;;;;;3.90;2.08;;;;;;;15.59;52.50;93416.50;4999106;28;20026;-75
2022/11/18 18:06:53;;;;;;;3.85;1.88;;;;;;;15.58;52.17;93409.47;4974765;28;20101;-77
2022/11/18 18:09:21;;;;;;;4.03;1.80;;;;;;;15.63;52.09;93433.66;4989308;28;20037;-76
2022/11/18 18:11:46;;;;;;;2.70;1.60;;;;;;;15.74;52.01;93390.56;4991466;28;20022;-76
2022/11/18 18:14:12;;;;;;;2.80;2.00;;;;;;;15.72;52.27;93404.19;4998296;28;20027;-76
2022/11/18 18:16:44;;;;;;;6.63;1.80;;;;;;;15.76;52.11;93416.50;4969393;28;20082;-77
2022/11/18 18:19:11;;;;;;;3.88;1.98;;;;;;;15.78;52.26;93404.94;4971647;28;20085;-76
2022/11/18 18:21:37;;;;;;;3.67;1.55;;;;;;;15.79;52.39;93407.19;4954141;28;20057;-76
2022/11/18 18:24:03;;;;;;;3.72;1.70;;;;;;;15.86;52.03;93425.31;4971526;28;20034;-76
2022/11/18 18:26:28;;;;;;;3.42;2.05;;;;;;;15.86;52.40;93422.53;4953559;28;20030;-76
2022/11/18 18:28:54;;;;;;;3.60;2.15;;;;;;;15.79;52.25;93404.41;4971398;28;20031;-76
2022/11/18 18:31:19;;;;;;;4.57;1.55;;;;;;;15.83;52.61;93424.31;4964613;28;20029;-76
2022/11/18 18:33:45;;;;;;;5.97;1.98;;;;;;;15.83;52.73;93420.78;4988526;28;20035;-75
2022/11/18 18:36:13;;;;;;;4.65;2.10;;;;;;;15.86;52.88;93425.31;5007196;28;20407;-77
2022/11/18 18:38:39;;;;;;;4.88;1.77;;;;;;;15.79;52.92;93437.66;4968767;28;20420;-76
2022/11/18 18:41:08;;;;;;;6.38;2.00;;;;;;;15.86;52.79;93419.75;4974702;28;20109;-74
2022/11/18 18:43:34;;;;;;;4.15;1.92;;;;;;;15.89;52.85;93454.78;4958460;28;20036;-75
2022/11/18 18:48:49;;;;;;;2.88;1.77;;;;;;;15.97;52.70;93427.28;4976104;28;20272;-75
2022/11/18 18:51:15;;;;;;;2.42;1.75;;;;;;;15.99;52.84;93441.38;4955643;28;20138;-76
2022/11/18 18:53:41;;;;;;;4.22;1.90;;;;;;;16.01;52.87;93438.88;4988176;28;20030;-75
2022/11/18 18:56:07;;;;;;;3.95;2.20;;;;;;;16.03;52.89;93436.34;4937167;28;20030;-76
2022/11/18 18:58:32;;;;;;;3.85;2.08;;;;;;;16.02;53.01;93459.78;4967422;28;20034;-77
2022/11/18 19:01:11;;;;;;;3.28;2.17;;;;;;;16.02;53.09;93437.63;4967710;28;20035;-76
2022/11/18 19:03:37;;;;;;;3.42;1.73;;;;;;;16.01;53.43;93436.88;4951539;28;20117;-76
2022/11/18 19:06:19;;;;;;;3.22;1.88;;;;;;;16.05;53.25;93453.22;4934311;28;20162;-75
2022/11/18 19:08:45;;;;;;;3.88;1.80;;;;;;;16.05;53.38;93442.13;4968389;28;20479;-75
2022/11/18 19:12:41;;;;;;;4.80;2.00;;;;;;;15.94;53.67;93451.22;4968654;28;20031;-75
2022/11/18 19:14:06;;;;;;;3.28;1.98;;;;;;;15.95;53.64;93452.75;4953177;28;20038;-77
2022/11/18 19:16:32;;;;;;;3.42;1.83;;;;;;;15.99;53.42;93449.69;4951497;28;20035;-76
2022/11/18 19:18:58;;;;;;;4.25;2.00;;;;;;;16.05;53.43;93464.31;4967699;28;20027;-75
2022/11/18 19:21:24;;;;;;;4.05;2.00;;;;;;;16.07;53.23;93465.31;4935515;28;20031;-75
2022/11/18 19:23:50;;;;;;;3.85;1.98;;;;;;;16.05;52.93;93467.81;4950345;28;20413;-76
2022/11/18 19:26:16;;;;;;;6.50;2.10;;;;;;;16.08;53.15;93466.06;4968237;28;20082;-76
2022/11/18 19:28:42;;;;;;;3.60;2.15;;;;;;;16.14;52.67;93466.81;4951151;28;20034;-76
2022/11/18 19:31:08;;;;;;;2.78;1.90;;;;;;;16.16;52.67;93462.25;4933973;28;20035;-76
2022/11/18 19:33:33;;;;;;;3.22;1.95;;;;;;;16.17;52.78;93505.38;4936172;28;20348;-76
2022/11/18 19:36:02;;;;;;;2.20;1.77;;;;;;;16.17;52.72;93490.72;4953410;28;20726;-76
2022/11/18 19:38:28;;;;;;;3.92;2.13;;;;;;;16.22;52.22;93501.06;4955198;28;20392;-77
2022/11/18 19:40:58;;;;;;;4.18;1.98;;;;;;;16.25;52.19;93491.72;4953297;28;20027;-76
2022/11/18 19:43:26;;;;;;;2.50;1.67;;;;;;;16.23;52.34;93546.94;4972032;28;20030;-76
2022/11/18 19:45:51;;;;;;;5.75;2.60;;;;;;;16.24;52.18;93529.03;4970305;28;20412;-75
2022/11/18 19:48:17;;;;;;;5.32;2.10;;;;;;;16.33;52.41;93519.69;4968697;28;20046;-75
2022/11/18 19:50:42;;;;;;;3.00;1.92;;;;;;;16.23;52.37;93526.75;4991371;28;20504;-76
2022/11/18 19:53:30;;;;;;;5.63;2.08;;;;;;;16.27;52.55;93541.88;5004917;28;20026;-76
2022/11/18 19:55:54;;;;;;;4.25;2.10;;;;;;;16.25;52.71;93557.53;4992124;28;20113;-76
2022/11/18 19:58:20;;;;;;;3.42;2.17;;;;;;;16.23;52.82;93565.56;4989602;28;20413;-76
2022/11/18 20:00:45;;;;;;;3.90;2.10;;;;;;;16.30;52.67;93562.31;4974304;28;20029;-75
2022/11/18 20:03:10;;;;;;;4.15;2.20;;;;;;;16.33;52.88;93578.66;4991479;28;20658;-77
2022/11/18 20:05:51;;;;;;;5.75;2.13;;;;;;;16.29;53.16;93608.69;5005515;28;20404;-76
2022/11/18 20:08:20;;;;;;;7.65;2.33;;;;;;;16.28;53.44;93634.88;4990291;28;20026;-78
2022/11/18 20:10:46;;;;;;;4.45;2.70;;;;;;;16.29;53.79;93638.44;4972267;28;20034;-76
2022/11/18 20:13:12;;;;;;;5.53;2.70;;;;;;;16.28;54.35;93651.53;4991089;28;20356;-76
2022/11/18 20:15:38;;;;;;;4.78;2.85;;;;;;;16.09;56.41;93647.75;5005066;28;20058;-76
2022/11/18 20:18:03;;;;;;;5.10;2.90;;;;;;;16.01;57.35;93652.28;4989475;28;20034;-76
2022/11/18 20:20:28;;;;;;;5.25;3.42;;;;;;;15.86;58.05;93650.50;5005799;28;20181;-77
2022/11/18 20:22:54;;;;;;;4.82;2.97;;;;;;;15.68;58.66;93667.59;4989769;28;20022;-75
2022/11/18 20:25:19;;;;;;;6.40;3.42;;;;;;;15.56;59.31;93674.34;4973474;28;20030;-76
2022/11/18 20:27:45;;;;;;;4.90;2.88;;;;;;;15.50;59.76;93677.09;4989666;28;20026;-78
2022/11/18 20:30:11;;;;;;;4.50;2.45;;;;;;;15.26;60.74;93665.72;5005911;28;20036;-74
2022/11/18 20:32:36;;;;;;;4.47;2.30;;;;;;;15.26;60.94;93668.47;4989352;28;20506;-77
2022/11/18 20:35:02;;;;;;;4.20;2.15;;;;;;;15.17;60.64;93665.91;4990453;28;20042;-76
2022/11/18 20:37:28;;;;;;;4.78;2.42;;;;;;;15.01;61.40;93675.66;4988452;28;20031;-76
2022/11/18 20:39:53;;;;;;;3.10;2.33;;;;;;;14.84;62.26;93672.78;4989882;28;20105;-77
2022/11/18 20:45:03;;;;;;;4.35;2.40;;;;;;;14.79;63.02;93654.16;5001361;28;20057;-75
2022/11/18 20:47:28;;;;;;;5.68;3.05;;;;;;;14.83;63.37;93644.38;4981472;28;20456;-76
2022/11/18 20:49:56;;;;;;;5.68;3.20;;;;;;;14.77;63.77;93646.34;4969512;28;20023;-76
2022/11/18 20:52:21;;;;;;;5.38;2.33;;;;;;;14.81;63.47;93646.13;4953856;28;20460;-77
2022/11/18 20:54:47;;;;;;;6.07;2.92;;;;;;;14.76;63.61;93655.16;4984887;28;20565;-77
2022/11/18 20:57:12;;;;;;;4.43;2.67;;;;;;;14.83;63.89;93680.34;4937256;28;20051;-76
2022/11/18 20:59:38;;;;;;;3.92;2.85;;;;;;;14.82;63.92;93680.84;4971195;28;20027;-78
2022/11/18 21:02:03;;;;;;;4.40;2.40;;;;;;;14.88;63.76;93681.63;4970115;28;20023;-76
2022/11/18 21:04:29;;;;;;;4.55;2.63;;;;;;;14.75;64.32;93681.31;4971553;28;20042;-77
2022/11/18 21:06:57;;;;;;;6.10;3.42;;;;;;;14.59;64.86;93677.94;4984442;28;20019;-76
2022/11/18 21:09:23;;;;;;;4.82;2.95;;;;;;;14.49;65.72;93681.38;4954184;28;20029;-77
2022/11/18 21:11:49;;;;;;;4.82;3.40;;;;;;;14.43;65.97;93686.09;4920239;28;20034;-76
2022/11/18 21:14:18;;;;;;;6.35;3.88;;;;;;;14.24;66.10;93683.69;4953022;28;20034;-76
2022/11/18 21:16:43;;;;;;;5.93;3.80;;;;;;;14.17;65.94;93680.63;4970257;28;20026;-76
2022/11/18 21:19:09;;;;;;;3.75;2.97;;;;;;;14.11;66.66;93682.56;4952462;28;20057;-76
2022/11/18 21:21:43;;;;;;;6.07;3.38;;;;;;;13.98;67.32;93669.16;4969455;28;20033;-75
2022/11/18 21:24:09;;;;;;;6.40;3.60;;;;;;;13.92;67.33;93676.63;4952620;28;20023;-75
2022/11/18 21:26:35;;;;;;;5.38;3.70;;;;;;;13.92;67.10;93684.94;4937015;28;20126;-76
2022/11/18 21:29:01;;;;;;;5.10;3.40;;;;;;;13.93;67.09;93667.84;4968730;28;20110;-76
2022/11/18 21:31:27;;;;;;;5.28;4.18;;;;;;;13.88;67.02;93673.31;4970356;28;20097;-75
2022/11/18 21:33:52;;;;;;;5.22;3.88;;;;;;;13.83;67.13;93680.34;4952143;28;20489;-76
2022/11/18 21:36:19;;;;;;;6.13;3.78;;;;;;;13.92;66.76;93682.91;4968041;28;20070;-75
2022/11/18 21:38:44;;;;;;;5.88;3.58;;;;;;;13.84;66.72;93687.38;4969022;28;20078;-76
2022/11/18 21:41:10;;;;;;;5.55;3.33;;;;;;;13.69;67.60;93673.66;4951261;28;20030;-76
2022/11/18 21:43:36;;;;;;;4.88;3.10;;;;;;;13.64;67.27;93679.13;4968814;28;20023;-75
2022/11/18 21:46:02;;;;;;;8.13;3.50;;;;;;;13.64;67.14;93688.16;4983180;28;20110;-75
2022/11/18 21:48:28;;;;;;;7.00;3.65;;;;;;;13.75;66.93;93696.56;5001482;28;20046;-75
2022/11/18 21:50:54;;;;;;;5.60;3.88;;;;;;;13.75;67.02;93704.84;4988114;28;20596;-74
2022/11/18 21:53:20;;;;;;;5.07;3.78;;;;;;;13.80;66.72;93706.91;4955350;28;20104;-76
2022/11/18 21:55:45;;;;;;;5.63;3.20;;;;;;;13.79;66.55;93704.66;4988748;28;20022;-76
2022/11/18 21:58:11;;;;;;;6.43;4.00;;;;;;;13.74;66.93;93703.34;4954329;28;20047;-77
2022/11/18 22:00:36;;;;;;;5.82;4.22;;;;;;;13.79;66.95;93721.22;4955502;28;20038;-76
2022/11/18 22:03:02;;;;;;;7.75;3.97;;;;;;;13.84;66.97;93720.53;4970066;28;20026;-75
2022/11/18 22:05:28;;;;;;;5.28;4.18;;;;;;;13.82;66.98;93712.72;4971557;28;20424;-76
2022/11/18 22:07:53;;;;;;;10.82;5.00;;;;;;;13.79;67.28;93715.69;4954682;28;20026;-75
2022/11/18 22:10:19;;;;;;;7.55;4.90;;;;;;;13.88;67.09;93721.06;4987959;28;20045;-76
2022/11/18 22:12:47;;;;;;;9.93;6.47;;;;;;;13.95;66.83;93731.69;4970782;28;20515;-75
2022/11/18 22:15:13;;;;;;;8.48;4.80;;;;;;;14.05;66.45;93738.56;4988621;28;20030;-77
2022/11/18 22:17:39;;;;;;;10.13;5.25;;;;;;;14.14;66.09;93736.88;4971240;28;20049;-76
2022/11/18 22:20:05;;;;;;;6.40;4.65;;;;;;;14.08;66.28;93745.09;4970244;28;20022;-76
2022/11/18 22:22:30;;;;;;;7.40;4.50;;;;;;;14.16;66.31;93745.41;4955078;28;20077;-76
2022/11/18 22:24:56;;;;;;;11.75;5.05;;;;;;;14.18;66.62;93765.06;4969936;28;20528;-75
2022/11/18 22:27:21;;;;;;;6.85;4.68;;;;;;;14.21;67.04;93764.06;4987222;28;20030;-75
2022/11/18 22:29:46;;;;;;;11.40;5.05;;;;;;;14.20;67.61;93776.38;4969810;28;20144;-75
2022/11/18 22:32:12;;;;;;;3.83;2.33;;;;;;;14.22;66.92;93768.34;4970736;28;20026;-77
2022/11/18 22:34:37;;;;;;;3.95;2.63;;;;;;;14.20;66.80;93773.59;4954216;28;20029;-75
2022/11/18 22:37:03;;;;;;;4.50;2.75;;;;;;;14.02;67.18;93783.75;4988047;28;20025;-75
2022/11/18 22:39:28;;;;;;;4.45;2.20;;;;;;;13.81;68.43;93796.06;4987993;28;20088;-75
2022/11/18 22:44:37;;;;;;;4.55;2.47;;;;;;;13.87;67.94;93796.88;4959861;28;20069;-75
2022/11/18 22:47:03;;;;;;;4.22;2.45;;;;;;;13.79;68.77;93809.59;4981161;28;20050;-75
2022/11/18 22:49:28;;;;;;;3.03;2.10;;;;;;;13.75;69.02;93811.81;4951497;28;20038;-74
2022/11/18 22:51:54;;;;;;;3.38;2.17;;;;;;;13.73;69.14;93814.31;4983178;28;20027;-74
2022/11/18 22:54:19;;;;;;;4.40;2.42;;;;;;;13.71;69.34;93822.31;4968109;28;20052;-74
2022/11/18 22:56:45;;;;;;;4.40;2.40;;;;;;;13.74;69.12;93835.16;4983744;28;20041;-75
2022/11/18 22:59:11;;;;;;;3.03;2.00;;;;;;;13.79;69.22;93851.78;4966628;28;20027;-74
2022/11/18 23:01:36;;;;;;;4.97;1.70;;;;;;;13.68;69.48;93859.94;4951346;28;20461;-73
2022/11/18 23:04:01;;;;;;;1.60;1.40;;;;;;;13.54;69.24;93869.06;4967640;28;20037;-74
2022/11/18 23:06:27;;;;;;;3.00;1.70;;;;;;;13.49;69.61;93870.50;4951342;28;20026;-72
2022/11/18 23:08:53;;;;;;;1.90;1.20;;;;;;;13.44;69.42;93862.91;4983323;28;20027;-75
2022/11/18 23:13:54;;;;;;;3.60;1.48;;;;;;;13.51;69.12;93859.72;4955425;28;20536;-75
2022/11/18 23:14:06;;;;;;;1.83;1.20;;;;;;;13.44;69.10;93865.66;4972815;28;20054;-76
2022/11/18 23:16:34;;;;;;;2.42;1.73;;;;;;;13.37;69.67;93873.59;4938500;28;20054;-74
2022/11/18 23:19:00;;;;;;;2.20;1.70;;;;;;;13.38;70.46;93872.34;4971762;28;20057;-75
2022/11/18 23:21:25;;;;;;;2.60;1.80;;;;;;;13.44;69.65;93873.94;4953932;28;20082;-74
2022/11/18 23:23:51;;;;;;;2.85;1.63;;;;;;;13.53;68.86;93867.50;4955309;28;20062;-75
2022/11/18 23:26:17;;;;;;;3.03;1.35;;;;;;;13.57;68.19;93878.38;4938255;28;20485;-75
2022/11/18 23:28:42;;;;;;;3.05;1.80;;;;;;;13.41;69.11;93872.13;4972840;28;20031;-75
2022/11/18 23:31:18;;;;;;;2.83;1.65;;;;;;;13.51;68.69;93870.00;4972066;28;20019;-75
2022/11/18 23:33:44;;;;;;;2.63;1.75;;;;;;;13.54;67.72;93874.56;4922443;28;20026;-75
2022/11/18 23:36:10;;;;;;;2.38;1.50;;;;;;;13.43;67.97;93880.69;4987669;28;20029;-73
2022/11/18 23:38:36;;;;;;;2.20;1.48;;;;;;;13.37;68.15;93888.16;4970813;28;20370;-74
2022/11/18 23:41:03;;;;;;;2.20;1.50;;;;;;;13.28;68.62;93879.97;4972213;28;20023;-75
2022/11/18 23:43:29;;;;;;;2.42;1.30;;;;;;;13.29;68.19;93882.25;4970816;28;20030;-75
2022/11/18 23:45:54;;;;;;;2.08;1.40;;;;;;;13.26;68.00;93876.94;4954825;28;20034;-75
2022/11/18 23:48:20;;;;;;;2.63;1.42;;;;;;;13.27;67.60;93884.75;4998791;28;20043;-75
2022/11/18 23:51:01;;;;;;;2.78;1.35;;;;;;;13.27;67.23;93895.03;4986181;28;20110;-74
2022/11/18 23:53:27;;;;;;;2.78;1.10;;;;;;;13.34;66.32;93902.91;4986230;28;20097;-74
2022/11/18 23:55:53;;;;;;;1.67;0.80;;;;;;;13.29;66.23;93904.31;4936986;28;20125;-73
2022/11/18 23:58:19;;;;;;;1.40;0.77;;;;;;;13.42;65.20;93908.78;4954800;28;20037;-75
